createdAt,value
2023-01-20T00:01:48.339Z,48.03
2023-01-20T00:04:19.255Z,46.35
2023-01-20T00:06:46.843Z,49.83
2023-01-20T00:09:17.474Z,47.70
2023-01-20T00:11:45.100Z,48.88
2023-01-20T00:14:14.455Z,44.10
2023-01-20T00:16:41.971Z,46.35
2023-01-20T00:19:13.439Z,47.42
2023-01-20T00:21:41.394Z,48.50
2023-01-20T00:24:08.735Z,39.88
2023-01-20T00:26:36.116Z,43.55
2023-01-20T00:29:03.178Z,41.13
2023-01-20T00:31:32.283Z,41.33
2023-01-20T00:34:03.391Z,44.50
2023-01-20T00:36:32.932Z,39.30
2023-01-20T00:39:01.816Z,41.33
2023-01-20T00:41:29.008Z,42.15
2023-01-20T00:43:58.713Z,41.22
2023-01-20T00:46:25.939Z,43.75
2023-01-20T00:48:53.163Z,45.47
2023-01-20T00:51:20.467Z,38.05
2023-01-20T00:53:47.757Z,42.70
2023-01-20T00:56:14.923Z,40.40
2023-01-20T00:58:44.509Z,38.53
2023-01-20T01:01:12.785Z,42.15
2023-01-20T01:03:40.115Z,37.75
2023-01-20T01:06:18.811Z,48.13
2023-01-20T01:08:46.458Z,40.08
2023-01-20T01:11:14.035Z,41.63
2023-01-20T01:13:41.700Z,43.40
2023-01-20T01:16:14.523Z,39.92
2023-01-20T01:18:42.986Z,40.15
2023-01-20T01:21:14.199Z,37.95
2023-01-20T01:23:41.339Z,42.35
2023-01-20T01:26:11.056Z,43.28
2023-01-20T01:28:38.574Z,44.72
2023-01-20T01:31:17.567Z,45.88
2023-01-20T01:33:45.212Z,37.72
2023-01-20T01:36:18.013Z,46.00
2023-01-20T01:38:45.479Z,41.40
2023-01-20T01:41:25.210Z,43.13
2023-01-20T01:44:15.070Z,38.92
2023-01-20T01:46:43.338Z,40.15
2023-01-20T01:49:18.635Z,40.60
2023-01-20T01:51:54.684Z,39.70
2023-01-20T01:54:27.629Z,37.25
2023-01-20T01:56:55.331Z,41.67
2023-01-20T01:59:22.482Z,40.28
2023-01-20T02:01:53.014Z,42.15
2023-01-20T02:04:23.987Z,44.90
2023-01-20T02:07:06.412Z,41.55
2023-01-20T02:12:08.229Z,38.55
2023-01-20T02:14:55.870Z,38.60
2023-01-20T02:17:35.550Z,39.45
2023-01-20T02:20:36.547Z,39.15
2023-01-20T02:23:43.616Z,38.08
2023-01-20T02:26:57.186Z,42.20
2023-01-20T02:29:58.196Z,38.58
2023-01-20T02:32:40.176Z,45.17
2023-01-20T02:35:36.003Z,43.78
2023-01-20T02:38:37.465Z,42.63
2023-01-20T02:41:23.592Z,41.42
2023-01-20T02:44:22.396Z,40.38
2023-01-20T02:47:20.640Z,40.90
2023-01-20T02:49:56.304Z,41.55
2023-01-20T02:52:38.070Z,44.33
2023-01-20T02:55:10.424Z,39.80
2023-01-20T02:57:52.237Z,45.75
2023-01-20T03:00:51.964Z,41.50
2023-01-20T03:03:28.619Z,41.40
2023-01-20T03:05:59.891Z,39.30
2023-01-20T03:08:31.751Z,41.10
2023-01-20T03:11:05.708Z,45.55
2023-01-20T03:13:45.384Z,39.17
2023-01-20T03:16:19.145Z,44.80
2023-01-20T03:18:47.041Z,41.53
2023-01-20T03:21:14.690Z,45.65
2023-01-20T03:23:58.327Z,36.63
2023-01-20T03:26:25.511Z,39.28
2023-01-20T03:28:54.780Z,39.78
2023-01-20T03:31:41.358Z,46.35
2023-01-20T03:34:14.850Z,45.97
2023-01-20T03:36:45.338Z,43.78
2023-01-20T03:39:12.818Z,44.20
2023-01-20T03:42:22.573Z,38.13
2023-01-20T03:45:01.846Z,42.00
2023-01-20T03:48:18.598Z,46.05
2023-01-20T03:50:57.498Z,43.35
2023-01-20T03:53:55.064Z,42.88
2023-01-20T03:56:47.397Z,39.90
2023-01-20T03:59:18.808Z,45.95
2023-01-20T04:01:46.999Z,46.75
2023-01-20T04:04:19.598Z,41.25
2023-01-20T04:06:53.103Z,43.95
2023-01-20T04:09:35.210Z,40.92
2023-01-20T04:12:02.863Z,39.90
2023-01-20T04:14:30.118Z,44.45
2023-01-20T04:16:59.261Z,37.72
2023-01-20T04:19:26.753Z,42.00
2023-01-20T04:22:20.800Z,37.72
2023-01-20T04:25:16.737Z,39.97
2023-01-20T04:27:44.280Z,37.22
2023-01-20T04:30:13.591Z,32.63
2023-01-20T04:32:40.811Z,45.92
2023-01-20T04:35:09.738Z,37.97
2023-01-20T04:37:44.795Z,34.97
2023-01-20T04:40:14.899Z,37.05
2023-01-20T04:42:42.066Z,38.58
2023-01-20T04:45:17.168Z,41.03
2023-01-20T04:47:49.341Z,35.72
2023-01-20T04:50:19.109Z,35.92
2023-01-20T04:52:46.322Z,38.17
2023-01-20T04:55:13.861Z,36.88
2023-01-20T04:57:41.129Z,37.30
2023-01-20T05:00:09.289Z,36.33
2023-01-20T05:02:36.379Z,39.08
2023-01-20T05:05:03.680Z,36.42
2023-01-20T05:07:30.859Z,35.67
2023-01-20T05:10:01.320Z,33.50
2023-01-20T05:12:28.551Z,33.63
2023-01-20T05:14:58.249Z,33.47
2023-01-20T05:17:25.379Z,34.40
2023-01-20T05:19:52.452Z,38.08
2023-01-20T05:22:19.632Z,33.55
2023-01-20T05:24:46.781Z,36.83
2023-01-20T05:27:13.837Z,38.22
2023-01-20T05:29:40.911Z,37.35
2023-01-20T05:32:08.101Z,35.83
2023-01-20T05:34:35.350Z,37.50
2023-01-20T05:37:05.132Z,36.88
2023-01-20T05:39:32.239Z,37.40
2023-01-20T05:41:59.492Z,36.35
2023-01-20T05:44:26.570Z,32.92
2023-01-20T05:46:53.770Z,35.47
2023-01-20T05:49:20.940Z,35.60
2023-01-20T05:51:48.508Z,30.23
2023-01-20T05:54:18.548Z,34.63
2023-01-20T05:56:47.750Z,33.42
2023-01-20T05:59:14.877Z,33.28
2023-01-20T06:01:42.075Z,35.22
2023-01-20T06:04:09.958Z,33.50
2023-01-20T06:06:38.062Z,36.38
2023-01-20T06:09:06.732Z,33.13
2023-01-20T06:11:34.115Z,33.88
2023-01-20T06:14:01.411Z,31.35
2023-01-20T06:16:29.975Z,35.53
2023-01-20T06:18:57.818Z,36.20
2023-01-20T06:21:25.177Z,42.97
2023-01-20T06:23:54.436Z,39.88
2023-01-20T06:26:23.966Z,37.65
2023-01-20T06:28:51.252Z,37.58
2023-01-20T06:31:20.475Z,40.15
2023-01-20T06:33:47.532Z,36.20
2023-01-20T06:36:17.121Z,34.33
2023-01-20T06:38:48.616Z,37.60
2023-01-20T06:41:17.106Z,35.78
2023-01-20T06:43:47.417Z,36.58
2023-01-20T06:46:16.287Z,36.30
2023-01-20T06:48:45.099Z,37.20
2023-01-20T06:51:20.976Z,34.05
2023-01-20T06:53:48.575Z,35.75
2023-01-20T06:56:16.137Z,35.42
2023-01-20T06:58:43.816Z,37.35
2023-01-20T07:01:31.162Z,37.10
2023-01-20T07:03:58.992Z,41.13
2023-01-20T07:06:41.025Z,39.70
2023-01-20T07:09:11.581Z,38.70
2023-01-20T07:11:39.882Z,39.25
2023-01-20T07:14:07.738Z,45.70
2023-01-20T07:16:35.216Z,39.30
2023-01-20T07:19:04.890Z,34.88
2023-01-20T07:21:32.492Z,35.63
2023-01-20T07:24:03.094Z,32.85
2023-01-20T07:26:30.876Z,36.30
2023-01-20T07:28:59.409Z,35.55
2023-01-20T07:31:31.806Z,35.88
2023-01-20T07:34:00.183Z,39.30
2023-01-20T07:36:29.975Z,34.58
2023-01-20T07:38:57.361Z,34.25
2023-01-20T07:41:24.667Z,33.90
2023-01-20T07:43:53.299Z,36.40
2023-01-20T07:46:21.883Z,38.17
2023-01-20T07:48:55.643Z,40.65
2023-01-20T07:51:25.384Z,40.75
2023-01-20T07:53:52.588Z,37.65
2023-01-20T07:56:28.119Z,38.97
2023-01-20T07:58:56.304Z,40.08
2023-01-20T08:01:32.980Z,39.63
2023-01-20T08:04:00.888Z,39.17
2023-01-20T08:06:28.645Z,37.55
2023-01-20T08:08:58.720Z,43.17
2023-01-20T08:11:26.228Z,40.20
2023-01-20T08:13:55.837Z,42.83
2023-01-20T08:16:23.339Z,38.58
2023-01-20T08:18:53.245Z,42.90
2023-01-20T08:21:30.681Z,40.80
2023-01-20T08:24:05.584Z,42.72
2023-01-20T08:26:36.809Z,43.47
2023-01-20T08:29:10.216Z,45.03
2023-01-20T08:31:38.341Z,41.10
2023-01-20T08:34:05.948Z,36.65
2023-01-20T08:36:37.138Z,38.03
2023-01-20T08:39:07.706Z,36.58
2023-01-20T08:41:39.241Z,42.85
2023-01-20T08:44:08.272Z,37.60
2023-01-20T08:46:41.667Z,38.97
2023-01-20T08:49:13.358Z,40.58
2023-01-20T08:51:41.156Z,33.87
2023-01-20T08:54:08.527Z,38.42
2023-01-20T08:56:36.925Z,38.03
2023-01-20T08:59:04.894Z,36.58
2023-01-20T09:01:37.980Z,39.67
2023-01-20T09:04:07.317Z,34.85
2023-01-20T09:06:50.300Z,33.55
2023-01-20T09:09:21.398Z,36.63
2023-01-20T09:11:52.157Z,37.08
2023-01-20T09:14:25.186Z,34.20
2023-01-20T09:16:52.610Z,36.85
2023-01-20T09:19:19.902Z,36.55
2023-01-20T09:21:51.849Z,36.40
2023-01-20T09:24:19.034Z,33.47
2023-01-20T09:26:47.377Z,37.20
2023-01-20T09:29:18.064Z,37.78
2023-01-20T09:31:53.949Z,35.85
2023-01-20T09:34:22.588Z,50.38
2023-01-20T09:36:58.644Z,42.35
2023-01-20T09:39:47.248Z,37.42
2023-01-20T09:43:29.870Z,39.20
2023-01-20T09:46:29.034Z,39.78
2023-01-20T09:49:53.406Z,39.25
2023-01-20T09:52:52.205Z,37.75
2023-01-20T09:55:31.990Z,37.45
2023-01-20T09:58:25.010Z,34.78
2023-01-20T10:01:37.982Z,35.78
2023-01-20T10:04:07.532Z,35.83
2023-01-20T10:07:09.405Z,31.88
2023-01-20T10:10:02.954Z,26.37
2023-01-20T10:12:33.595Z,36.80
2023-01-20T10:15:21.458Z,36.28
2023-01-20T10:17:59.303Z,31.70
2023-01-20T10:20:50.610Z,31.92
2023-01-20T10:23:53.604Z,30.15
2023-01-20T10:27:10.237Z,32.22
2023-01-20T10:29:41.812Z,29.23
2023-01-20T10:32:33.460Z,32.47
2023-01-20T10:35:18.584Z,34.53
2023-01-20T10:37:46.129Z,33.72
2023-01-20T10:40:51.249Z,30.58
2023-01-20T10:43:19.318Z,29.60
2023-01-20T10:46:23.708Z,34.08
2023-01-20T10:49:37.179Z,31.55
2023-01-20T10:52:35.038Z,35.65
2023-01-20T10:55:35.907Z,33.25
2023-01-20T10:58:14.975Z,34.80
2023-01-20T11:00:45.760Z,38.75
2023-01-20T11:03:20.743Z,34.85
2023-01-20T11:05:50.812Z,32.58
2023-01-20T11:08:27.420Z,34.88
2023-01-20T11:11:14.690Z,33.15
2023-01-20T11:13:41.914Z,34.03
2023-01-20T11:16:19.330Z,37.03
2023-01-20T11:19:16.031Z,39.88
2023-01-20T11:21:43.212Z,32.78
2023-01-20T11:24:42.195Z,32.72
2023-01-20T11:27:20.487Z,29.15
2023-01-20T11:30:01.224Z,27.80
2023-01-20T11:32:36.765Z,27.05
2023-01-20T11:35:25.363Z,29.60
2023-01-20T11:37:52.898Z,27.55
2023-01-20T11:40:29.507Z,24.27
2023-01-20T11:42:56.576Z,26.02
2023-01-20T11:45:29.656Z,24.60
2023-01-20T11:48:15.998Z,25.58
2023-01-20T11:50:50.474Z,24.05
2023-01-20T11:53:29.249Z,22.73
2023-01-20T11:56:05.766Z,23.08
2023-01-20T11:58:54.637Z,25.48
2023-01-20T12:01:28.916Z,26.38
2023-01-20T12:04:53.023Z,27.65
2023-01-20T12:07:35.465Z,29.27
2023-01-20T12:13:04.803Z,33.65
2023-01-20T12:15:41.748Z,31.60
2023-01-20T12:18:20.098Z,35.45
2023-01-20T12:20:59.311Z,36.63
2023-01-20T12:24:21.794Z,39.30
2023-01-20T12:26:49.927Z,33.60
2023-01-20T12:29:37.887Z,34.88
2023-01-20T12:32:05.353Z,34.80
2023-01-20T12:34:34.527Z,33.88
2023-01-20T12:37:50.575Z,32.40
2023-01-20T12:40:20.410Z,32.78
2023-01-20T12:43:31.360Z,34.85
2023-01-20T12:46:36.157Z,35.42
2023-01-20T12:49:49.456Z,37.85
2023-01-20T12:52:36.087Z,37.20
2023-01-20T12:55:27.528Z,35.63
2023-01-20T12:58:40.531Z,33.75
2023-01-20T13:04:40.607Z,38.05
2023-01-20T13:07:25.325Z,30.45
2023-01-20T13:10:01.267Z,30.33
2023-01-20T13:13:13.551Z,34.03
2023-01-20T13:15:52.678Z,33.15
2023-01-20T13:18:36.071Z,34.65
2023-01-20T13:21:03.277Z,35.95
2023-01-20T13:23:37.455Z,37.85
2023-01-20T13:26:06.081Z,31.63
2023-01-20T13:28:33.272Z,31.73
2023-01-20T13:33:42.758Z,31.27
2023-01-20T13:36:24.474Z,32.95
2023-01-20T13:39:42.121Z,31.65
2023-01-20T13:42:31.232Z,32.97
2023-01-20T13:45:22.613Z,30.23
2023-01-20T13:48:08.365Z,28.17
2023-01-20T13:50:42.359Z,28.52
2023-01-20T13:53:21.154Z,28.23
2023-01-20T13:55:50.896Z,30.95
2023-01-20T13:58:34.157Z,30.52
2023-01-20T14:01:07.854Z,29.58
2023-01-20T14:03:38.902Z,33.63
2023-01-20T14:06:22.197Z,37.05
2023-01-20T14:08:51.130Z,27.10
2023-01-20T14:11:22.042Z,31.75
2023-01-20T14:14:01.925Z,25.38
2023-01-20T14:16:41.895Z,29.80
2023-01-20T14:19:34.772Z,25.70
2023-01-20T14:22:23.073Z,28.73
2023-01-20T14:25:00.651Z,32.50
2023-01-20T14:27:29.955Z,24.90
2023-01-20T14:30:13.555Z,32.53
2023-01-20T14:32:40.962Z,28.52
2023-01-20T14:35:24.205Z,31.48
2023-01-20T14:37:52.639Z,33.47
2023-01-20T14:40:40.299Z,34.58
2023-01-20T14:43:18.475Z,36.38
2023-01-20T14:45:48.922Z,29.15
2023-01-20T14:48:32.432Z,29.77
2023-01-20T14:51:02.765Z,29.15
2023-01-20T14:53:30.086Z,36.58
2023-01-20T14:56:16.324Z,51.83
2023-01-20T14:58:49.883Z,47.70
2023-01-20T15:01:27.214Z,40.75
2023-01-20T15:04:00.264Z,43.95
2023-01-20T15:06:27.882Z,45.47
2023-01-20T15:09:06.574Z,38.00
2023-01-20T15:11:36.449Z,35.50
2023-01-20T15:14:08.434Z,36.60
2023-01-20T15:16:44.798Z,38.90
2023-01-20T15:19:20.675Z,34.85
2023-01-20T15:21:48.905Z,37.10
2023-01-20T15:24:30.650Z,44.28
2023-01-20T15:27:00.743Z,40.10
2023-01-20T15:29:33.169Z,38.50
2023-01-20T15:32:09.150Z,51.65
2023-01-20T15:34:36.358Z,39.90
2023-01-20T15:37:11.909Z,39.80
2023-01-20T15:39:41.572Z,34.90
2023-01-20T15:42:11.619Z,43.05
2023-01-20T15:44:38.757Z,48.00
2023-01-20T15:47:30.985Z,47.80
2023-01-20T15:49:58.486Z,43.42
2023-01-20T15:52:25.659Z,47.88
2023-01-20T15:54:52.786Z,54.28
2023-01-20T15:57:22.521Z,59.30
2023-01-20T15:59:50.251Z,63.45
2023-01-20T16:02:23.607Z,69.60
2023-01-20T16:04:50.728Z,46.70
2023-01-20T16:07:20.538Z,65.90
2023-01-20T16:09:47.679Z,62.72
2023-01-20T16:12:17.554Z,65.95
2023-01-20T16:14:45.404Z,61.67
2023-01-20T16:17:17.922Z,51.20
2023-01-20T16:19:45.151Z,45.50
2023-01-20T16:22:13.615Z,54.55
2023-01-20T16:24:44.417Z,43.55
2023-01-20T16:27:21.068Z,43.53
2023-01-20T16:29:48.901Z,47.33
2023-01-20T16:32:18.291Z,43.83
2023-01-20T16:34:47.117Z,45.92
2023-01-20T16:37:14.817Z,47.75
2023-01-20T16:39:42.112Z,45.40
2023-01-20T16:42:14.829Z,46.05
2023-01-20T16:44:41.999Z,51.53
2023-01-20T16:47:09.225Z,44.50
2023-01-20T16:49:36.338Z,40.63
2023-01-20T16:52:03.945Z,49.13
2023-01-20T16:54:31.133Z,53.03
2023-01-20T16:56:58.271Z,51.25
2023-01-20T16:59:27.600Z,56.15
2023-01-20T17:01:54.746Z,47.97
2023-01-20T17:04:21.886Z,39.55
2023-01-20T17:06:48.963Z,41.92
2023-01-20T17:09:16.031Z,40.90
2023-01-20T17:11:43.257Z,45.10
2023-01-20T17:14:11.677Z,43.20
2023-01-20T17:16:39.855Z,44.33
2023-01-20T17:19:07.287Z,47.95
2023-01-20T17:21:38.986Z,49.90
2023-01-20T17:24:07.444Z,52.67
2023-01-20T17:26:37.080Z,54.65
2023-01-20T17:29:05.665Z,59.90
2023-01-20T17:31:37.135Z,55.45
2023-01-20T17:34:06.414Z,51.45
2023-01-20T17:36:34.924Z,52.40
2023-01-20T17:39:06.299Z,49.25
2023-01-20T17:41:34.654Z,54.28
2023-01-20T17:44:02.168Z,56.17
2023-01-20T17:46:30.992Z,57.67
2023-01-20T17:49:00.359Z,46.72
2023-01-20T17:51:29.578Z,40.60
2023-01-20T17:53:58.585Z,41.35
2023-01-20T17:56:26.776Z,39.95
2023-01-20T17:58:56.332Z,46.40
2023-01-20T18:01:30.440Z,39.72
2023-01-20T18:03:59.036Z,49.33
2023-01-20T18:06:28.261Z,47.55
2023-01-20T18:08:58.406Z,56.92
2023-01-20T18:11:28.018Z,53.10
2023-01-20T18:13:57.647Z,54.28
2023-01-20T18:16:29.668Z,68.78
2023-01-20T18:18:59.176Z,53.22
2023-01-20T18:21:38.340Z,60.95
2023-01-20T18:24:08.195Z,63.30
2023-01-20T18:26:38.572Z,66.32
2023-01-20T18:29:10.461Z,66.78
2023-01-20T18:34:10.960Z,67.00
2023-01-20T18:36:41.906Z,62.40
2023-01-20T18:39:18.305Z,67.50
2023-01-20T18:41:45.999Z,73.15
2023-01-20T18:44:13.663Z,69.00
2023-01-20T18:46:41.091Z,72.03
2023-01-20T18:49:10.728Z,64.20
2023-01-20T18:51:40.288Z,63.15
2023-01-20T18:54:11.937Z,65.82
2023-01-20T18:56:39.447Z,49.55
2023-01-20T18:59:07.701Z,63.15
2023-01-20T19:01:40.441Z,62.55
2023-01-20T19:04:11.339Z,63.55
2023-01-20T19:06:42.027Z,60.72
2023-01-20T19:09:16.130Z,57.67
2023-01-20T19:11:43.607Z,69.78
2023-01-20T19:14:15.404Z,63.55
2023-01-20T19:16:45.498Z,62.90
2023-01-20T19:19:13.833Z,59.13
2023-01-20T19:21:41.795Z,56.47
2023-01-20T19:24:16.801Z,59.45
2023-01-20T19:26:44.205Z,53.58
2023-01-20T19:29:15.855Z,55.83
2023-01-20T19:31:43.384Z,49.08
2023-01-20T19:34:13.256Z,49.83
2023-01-20T19:36:41.073Z,55.13
2023-01-20T19:39:10.694Z,51.88
2023-01-20T19:41:39.028Z,54.88
2023-01-20T19:44:08.064Z,50.80
2023-01-20T19:46:39.057Z,51.13
2023-01-20T19:49:06.845Z,59.25
2023-01-20T19:51:34.146Z,49.28
2023-01-20T19:54:02.722Z,51.15
2023-01-20T19:56:32.993Z,55.35
2023-01-20T19:59:01.284Z,46.90
2023-01-20T20:01:32.580Z,51.60
2023-01-20T20:04:05.567Z,49.60
2023-01-20T20:06:44.986Z,47.47
2023-01-20T20:09:26.064Z,52.00
2023-01-20T20:11:56.244Z,46.47
2023-01-20T20:14:23.714Z,52.38
2023-01-20T20:16:51.271Z,55.58
2023-01-20T20:19:19.841Z,49.88
2023-01-20T20:21:47.212Z,47.42
2023-01-20T20:24:16.919Z,51.95
2023-01-20T20:26:46.343Z,47.70
2023-01-20T20:29:15.529Z,47.83
2023-01-20T20:31:45.480Z,47.58
2023-01-20T20:34:17.522Z,50.08
2023-01-20T20:36:47.342Z,55.30
2023-01-20T20:39:17.717Z,49.88
2023-01-20T20:41:45.786Z,45.95
2023-01-20T20:44:13.370Z,51.55
2023-01-20T20:46:40.963Z,44.08
2023-01-20T20:49:12.884Z,47.45
2023-01-20T20:51:40.093Z,49.92
2023-01-20T20:54:09.149Z,53.50
2023-01-20T20:56:37.151Z,50.78
2023-01-20T20:59:04.288Z,50.30
2023-01-20T21:01:34.018Z,48.17
2023-01-20T21:04:04.579Z,52.05
2023-01-20T21:06:32.944Z,50.58
2023-01-20T21:09:00.648Z,56.35
2023-01-20T21:11:28.989Z,60.42
2023-01-20T21:13:56.685Z,54.83
2023-01-20T21:16:25.728Z,54.50
2023-01-20T21:18:58.370Z,57.38
2023-01-20T21:21:25.953Z,53.50
2023-01-20T21:23:56.118Z,54.63
2023-01-20T21:26:30.272Z,52.00
2023-01-20T21:29:01.960Z,55.90
2023-01-20T21:31:31.568Z,54.65
2023-01-20T21:34:00.475Z,58.50
2023-01-20T21:36:34.036Z,52.00
2023-01-20T21:39:01.362Z,58.53
2023-01-20T21:41:28.790Z,48.15
2023-01-20T21:44:14.568Z,50.20
2023-01-20T21:46:41.971Z,50.28
2023-01-20T21:49:27.913Z,53.65
2023-01-20T21:52:14.988Z,44.83
2023-01-20T21:54:45.633Z,47.20
2023-01-20T21:57:15.070Z,53.65
2023-01-20T21:59:45.835Z,51.97
2023-01-20T22:02:14.623Z,48.15
2023-01-20T22:04:47.098Z,52.15
2023-01-20T22:07:17.621Z,55.75
2023-01-20T22:09:45.344Z,51.83
2023-01-20T22:15:21.580Z,46.80
2023-01-20T22:17:49.414Z,46.90
2023-01-20T22:20:20.433Z,44.80
2023-01-20T22:22:50.782Z,35.67
2023-01-20T22:25:20.547Z,51.08
2023-01-20T22:27:49.248Z,50.70
2023-01-20T22:30:19.904Z,43.20
2023-01-20T22:32:47.364Z,47.25
2023-01-20T22:35:15.227Z,52.70
2023-01-20T22:37:45.616Z,55.75
2023-01-20T22:40:20.514Z,45.95
2023-01-20T22:42:48.205Z,60.25
2023-01-20T22:45:18.631Z,57.22
2023-01-20T22:47:50.275Z,56.95
2023-01-20T22:50:17.894Z,47.50
2023-01-20T22:52:45.475Z,45.55
2023-01-20T22:55:12.723Z,51.10
2023-01-20T22:57:40.251Z,48.67
2023-01-20T23:00:11.291Z,44.35
2023-01-20T23:02:42.699Z,50.92
2023-01-20T23:05:12.483Z,33.38
2023-01-20T23:07:39.588Z,43.30
2023-01-20T23:10:07.788Z,49.88
2023-01-20T23:12:34.939Z,45.70
2023-01-20T23:15:02.882Z,48.42
2023-01-20T23:17:31.404Z,47.35
2023-01-20T23:19:58.574Z,48.30
2023-01-20T23:22:25.809Z,43.40
2023-01-20T23:24:52.983Z,48.30
2023-01-20T23:27:20.107Z,53.42
2023-01-20T23:29:49.226Z,38.67
2023-01-20T23:32:16.383Z,44.88
2023-01-20T23:34:43.501Z,46.05
2023-01-20T23:37:10.727Z,43.17
2023-01-20T23:39:37.861Z,45.05
2023-01-20T23:42:05.122Z,42.40
2023-01-20T23:44:32.299Z,50.78
2023-01-20T23:47:01.796Z,41.33
2023-01-20T23:49:28.919Z,41.38
2023-01-20T23:51:56.162Z,40.53
2023-01-20T23:54:23.637Z,41.78
2023-01-20T23:56:50.770Z,36.00
2023-01-20T23:59:18.030Z,33.10
